createdAt,value
2022-08-01T00:00:06.696Z,1011.14
2022-08-01T00:01:06.658Z,1011.14
2022-08-01T00:02:06.976Z,1011.13
2022-08-01T00:03:06.585Z,1011.13
2022-08-01T00:04:06.549Z,1011.14
2022-08-01T00:05:06.513Z,1011.13
2022-08-01T00:06:06.473Z,1011.12
2022-08-01T00:07:06.442Z,1011.13
2022-08-01T00:08:06.413Z,1011.08
2022-08-01T00:09:06.366Z,1011.09
2022-08-01T00:10:06.357Z,1011.09
2022-08-01T00:11:06.295Z,1011.12
2022-08-01T00:12:06.254Z,1011.13
2022-08-01T00:13:06.221Z,1011.13
2022-08-01T00:14:06.183Z,1011.12
2022-08-01T00:15:06.154Z,1011.14
2022-08-01T00:16:06.118Z,1011.12
2022-08-01T00:17:07.536Z,1011.11
2022-08-01T00:18:06.035Z,1011.10
2022-08-01T00:19:05.999Z,1011.13
2022-08-01T00:20:05.962Z,1011.10
2022-08-01T00:21:05.927Z,1011.15
2022-08-01T00:22:06.261Z,1011.08
2022-08-01T00:23:05.857Z,1011.13
2022-08-01T00:24:05.813Z,1011.16
2022-08-01T00:25:05.779Z,1011.14
2022-08-01T00:26:05.744Z,1011.17
2022-08-01T00:27:05.717Z,1011.13
2022-08-01T00:28:05.670Z,1011.13
2022-08-01T00:29:06.590Z,1011.11
2022-08-01T00:30:10.687Z,1011.16
2022-08-01T00:31:05.559Z,1011.14
2022-08-01T00:32:05.918Z,1011.13
2022-08-01T00:33:05.487Z,1011.13
2022-08-01T00:34:05.451Z,1011.17
2022-08-01T00:35:05.416Z,1011.16
2022-08-01T00:36:05.386Z,1011.13
2022-08-01T00:37:05.341Z,1011.16
2022-08-01T00:38:05.318Z,1011.17
2022-08-01T00:39:05.275Z,1011.17
2022-08-01T00:40:05.241Z,1011.16
2022-08-01T00:41:05.194Z,1011.15
2022-08-01T00:42:05.548Z,1011.15
2022-08-01T00:43:05.137Z,1011.12
2022-08-01T00:44:05.085Z,1011.13
2022-08-01T00:45:05.048Z,1011.12
2022-08-01T00:46:05.023Z,1011.13
2022-08-01T00:47:04.974Z,1011.12
2022-08-01T00:48:04.937Z,1011.12
2022-08-01T00:49:04.931Z,1011.17
2022-08-01T00:50:04.874Z,1011.12
2022-08-01T00:51:04.828Z,1011.17
2022-08-01T00:52:05.110Z,1011.13
2022-08-01T00:53:04.756Z,1011.12
2022-08-01T00:54:04.711Z,1011.13
2022-08-01T00:55:04.697Z,1011.13
2022-08-01T00:56:04.646Z,1011.10
2022-08-01T00:57:04.626Z,1011.08
2022-08-01T00:58:06.092Z,1011.10
2022-08-01T00:59:04.537Z,1011.01
2022-08-01T01:00:04.496Z,1011.05
2022-08-01T01:01:04.510Z,1011.02
2022-08-01T01:02:04.769Z,1011.09
2022-08-01T01:03:04.412Z,1011.03
2022-08-01T01:04:08.519Z,1011.04
2022-08-01T01:05:04.317Z,1011.04
2022-08-01T01:06:04.277Z,1011.05
2022-08-01T01:07:04.243Z,1011.09
2022-08-01T01:08:04.202Z,1011.05
2022-08-01T01:09:04.184Z,1011.05
2022-08-01T01:10:04.136Z,1011.06
2022-08-01T01:11:04.094Z,1011.03
2022-08-01T01:12:04.609Z,1011.05
2022-08-01T01:13:04.021Z,1011.11
2022-08-01T01:14:03.983Z,1011.09
2022-08-01T01:15:03.971Z,1011.08
2022-08-01T01:16:03.910Z,1011.09
2022-08-01T01:17:03.878Z,1011.10
2022-08-01T01:18:03.843Z,1011.11
2022-08-01T01:19:03.809Z,1011.12
2022-08-01T01:20:03.763Z,1011.11
2022-08-01T01:21:03.752Z,1011.09
2022-08-01T01:22:03.960Z,1011.06
2022-08-01T01:23:03.658Z,1011.05
2022-08-01T01:24:03.614Z,1011.02
2022-08-01T01:25:03.583Z,1011.00
2022-08-01T01:26:03.543Z,1011.02
2022-08-01T01:27:03.520Z,1011.04
2022-08-01T01:28:03.489Z,1011.03
2022-08-01T01:29:03.432Z,1011.02
2022-08-01T01:30:03.399Z,1011.07
2022-08-01T01:31:03.361Z,1011.08
2022-08-01T01:32:03.682Z,1011.07
2022-08-01T01:33:03.285Z,1011.04
2022-08-01T01:34:03.258Z,1011.04
2022-08-01T01:35:03.212Z,1011.08
2022-08-01T01:36:03.178Z,1011.12
2022-08-01T01:37:03.137Z,1011.12
2022-08-01T01:38:03.101Z,1011.07
2022-08-01T01:39:03.078Z,1011.06
2022-08-01T01:40:03.026Z,1011.08
2022-08-01T01:41:02.992Z,1011.06
2022-08-01T01:42:03.195Z,1011.08
2022-08-01T01:43:02.919Z,1011.10
2022-08-01T01:44:02.879Z,1011.12
2022-08-01T01:45:02.870Z,1011.13
2022-08-01T01:46:02.821Z,1011.14
2022-08-01T01:47:02.790Z,1011.12
2022-08-01T01:48:02.738Z,1011.09
2022-08-01T01:49:02.759Z,1011.11
2022-08-01T01:50:02.669Z,1011.13
2022-08-01T01:51:02.637Z,1011.07
2022-08-01T01:52:03.167Z,1011.12
2022-08-01T01:53:02.553Z,1011.10
2022-08-01T01:54:02.514Z,1011.14
2022-08-01T01:55:02.490Z,1011.13
2022-08-01T01:56:02.440Z,1011.12
2022-08-01T01:57:02.416Z,1011.11
2022-08-01T01:58:02.366Z,1011.13
2022-08-01T01:59:02.331Z,1011.13
2022-08-01T02:00:02.298Z,1011.15
2022-08-01T02:01:02.885Z,1011.12
2022-08-01T02:02:05.972Z,1011.12
2022-08-01T02:03:02.254Z,1011.08
2022-08-01T02:04:02.148Z,1011.11
2022-08-01T02:05:02.122Z,1011.14
2022-08-01T02:06:02.076Z,1011.13
2022-08-01T02:07:02.039Z,1011.10
2022-08-01T02:08:01.998Z,1011.12
2022-08-01T02:09:01.978Z,1011.08
2022-08-01T02:10:01.933Z,1011.10
2022-08-01T02:11:01.894Z,1011.06
2022-08-01T02:12:08.133Z,1011.09
2022-08-01T02:13:01.820Z,1011.06
2022-08-01T02:14:01.780Z,1011.09
2022-08-01T02:15:01.762Z,1011.03
2022-08-01T02:16:01.708Z,1011.07
2022-08-01T02:17:01.672Z,1011.07
2022-08-01T02:18:01.633Z,1011.08
2022-08-01T02:19:01.596Z,1011.01
2022-08-01T02:20:01.576Z,1011.05
2022-08-01T02:21:01.523Z,1011.08
2022-08-01T02:22:01.488Z,1011.07
2022-08-01T02:23:01.458Z,1011.05
2022-08-01T02:24:05.726Z,1011.06
2022-08-01T02:25:01.378Z,1011.06
2022-08-01T02:26:10.872Z,1011.04
2022-08-01T02:27:01.304Z,1011.06
2022-08-01T02:28:01.267Z,1011.05
2022-08-01T02:29:01.244Z,1011.04
2022-08-01T02:30:01.204Z,1011.05
2022-08-01T02:31:01.158Z,1011.09
2022-08-01T02:32:01.139Z,1011.04
2022-08-01T02:33:01.086Z,1011.07
2022-08-01T02:34:01.046Z,1011.04
2022-08-01T02:35:01.012Z,1011.04
2022-08-01T02:36:30.741Z,1010.99
2022-08-01T02:37:00.952Z,1010.99
2022-08-01T02:38:00.916Z,1011.00
2022-08-01T02:39:00.877Z,1011.00
2022-08-01T02:40:00.823Z,1010.97
2022-08-01T02:41:00.794Z,1010.99
2022-08-01T02:42:00.754Z,1010.97
2022-08-01T02:43:00.721Z,1010.91
2022-08-01T02:44:00.691Z,1010.93
2022-08-01T02:45:00.644Z,1010.94
2022-08-01T02:46:00.612Z,1010.94
2022-08-01T02:47:00.584Z,1010.94
2022-08-01T02:48:00.534Z,1010.99
2022-08-01T02:49:00.623Z,1010.95
2022-08-01T02:50:00.472Z,1010.98
2022-08-01T02:51:00.427Z,1010.98
2022-08-01T02:52:00.394Z,1011.00
2022-08-01T02:53:00.352Z,1011.00
2022-08-01T02:54:00.314Z,1010.99
2022-08-01T02:55:00.293Z,1010.98
2022-08-01T02:56:00.242Z,1010.97
2022-08-01T02:57:00.206Z,1010.97
2022-08-01T02:58:00.843Z,1010.99
2022-08-01T02:59:00.137Z,1010.96
2022-08-01T03:00:00.127Z,1010.93
2022-08-01T03:01:00.072Z,1010.96
2022-08-01T03:02:00.643Z,1010.94
2022-08-01T03:02:59.997Z,1010.92
2022-08-01T03:03:59.953Z,1010.87
2022-08-01T03:04:59.917Z,1010.91
2022-08-01T03:05:59.874Z,1010.93
2022-08-01T03:06:59.843Z,1010.91
2022-08-01T03:08:03.811Z,1010.93
2022-08-01T03:08:59.778Z,1010.95
2022-08-01T03:09:59.731Z,1010.96
2022-08-01T03:10:59.694Z,1010.98
2022-08-01T03:11:59.665Z,1010.93
2022-08-01T03:12:59.623Z,1010.96
2022-08-01T03:13:59.582Z,1010.97
2022-08-01T03:15:08.418Z,1010.99
2022-08-01T03:15:59.508Z,1010.97
2022-08-01T03:16:59.474Z,1011.00
2022-08-01T03:17:59.436Z,1010.99
2022-08-01T03:18:59.403Z,1011.01
2022-08-01T03:19:59.368Z,1010.99
2022-08-01T03:20:59.350Z,1010.99
2022-08-01T03:21:59.302Z,1011.02
2022-08-01T03:22:59.256Z,1011.02
2022-08-01T03:23:59.215Z,1011.05
2022-08-01T03:24:59.180Z,1011.06
2022-08-01T03:25:59.145Z,1011.05
2022-08-01T03:26:59.109Z,1011.05
2022-08-01T03:27:59.077Z,1011.05
2022-08-01T03:28:59.034Z,1011.05
2022-08-01T03:29:59.000Z,1011.05
2022-08-01T03:30:58.959Z,1011.06
2022-08-01T03:31:58.935Z,1011.09
2022-08-01T03:32:58.885Z,1011.12
2022-08-01T03:34:01.757Z,1011.09
2022-08-01T03:34:58.812Z,1011.13
2022-08-01T03:35:58.773Z,1011.08
2022-08-01T03:36:58.742Z,1011.12
2022-08-01T03:38:16.256Z,1011.12
2022-08-01T03:38:58.664Z,1011.10
2022-08-01T03:39:58.630Z,1011.12
2022-08-01T03:40:58.593Z,1011.09
2022-08-01T03:41:58.555Z,1011.12
2022-08-01T03:42:58.522Z,1011.14
2022-08-01T03:43:58.669Z,1011.13
2022-08-01T03:44:58.446Z,1011.09
2022-08-01T03:45:58.410Z,1011.18
2022-08-01T03:46:58.375Z,1011.12
2022-08-01T03:47:58.348Z,1011.17
2022-08-01T03:48:58.330Z,1011.15
2022-08-01T03:49:58.266Z,1011.14
2022-08-01T03:50:58.229Z,1011.12
2022-08-01T03:51:58.189Z,1011.13
2022-08-01T03:52:58.155Z,1011.17
2022-08-01T03:53:58.138Z,1011.16
2022-08-01T03:54:58.087Z,1011.16
2022-08-01T03:55:58.048Z,1011.15
2022-08-01T03:56:58.006Z,1011.12
2022-08-01T03:57:57.971Z,1011.13
2022-08-01T03:58:57.934Z,1011.11
2022-08-01T03:59:57.906Z,1011.12
2022-08-01T04:00:57.910Z,1011.11
2022-08-01T04:01:57.829Z,1011.11
2022-08-01T04:02:57.786Z,1011.11
2022-08-01T04:03:57.751Z,1011.13
2022-08-01T04:04:57.712Z,1011.13
2022-08-01T04:05:57.713Z,1011.09
2022-08-01T04:06:57.641Z,1011.12
2022-08-01T04:07:57.604Z,1011.14
2022-08-01T04:08:57.567Z,1011.11
2022-08-01T04:09:57.533Z,1011.13
2022-08-01T04:10:57.511Z,1011.10
2022-08-01T04:11:57.457Z,1011.13
2022-08-01T04:12:57.422Z,1011.11
2022-08-01T04:13:57.740Z,1011.12
2022-08-01T04:14:57.351Z,1011.14
2022-08-01T04:15:57.317Z,1011.09
2022-08-01T04:16:57.300Z,1011.12
2022-08-01T04:17:57.240Z,1011.14
2022-08-01T04:18:57.203Z,1011.08
2022-08-01T04:19:57.164Z,1011.13
2022-08-01T04:20:57.128Z,1011.13
2022-08-01T04:21:57.093Z,1011.12
2022-08-01T04:22:57.081Z,1011.15
2022-08-01T04:23:57.021Z,1011.17
2022-08-01T04:24:57.250Z,1011.17
2022-08-01T04:25:56.949Z,1011.18
2022-08-01T04:26:56.910Z,1011.16
2022-08-01T04:27:56.887Z,1011.17
2022-08-01T04:28:56.846Z,1011.18
2022-08-01T04:29:56.803Z,1011.20
2022-08-01T04:31:01.588Z,1011.20
2022-08-01T04:31:56.727Z,1011.22
2022-08-01T04:32:56.705Z,1011.24
2022-08-01T04:33:56.653Z,1011.25
2022-08-01T04:34:56.627Z,1011.25
2022-08-01T04:36:01.503Z,1011.24
2022-08-01T04:36:56.541Z,1011.27
2022-08-01T04:37:56.506Z,1011.27
2022-08-01T04:38:56.466Z,1011.31
2022-08-01T04:39:56.432Z,1011.35
2022-08-01T04:40:56.409Z,1011.32
2022-08-01T04:41:56.359Z,1011.33
2022-08-01T04:42:56.334Z,1011.34
2022-08-01T04:43:56.297Z,1011.37
2022-08-01T04:44:56.248Z,1011.38
2022-08-01T04:45:56.212Z,1011.35
2022-08-01T04:46:56.174Z,1011.35
2022-08-01T04:47:56.137Z,1011.35
2022-08-01T04:48:56.160Z,1011.37
2022-08-01T04:49:56.076Z,1011.38
2022-08-01T04:50:56.027Z,1011.35
2022-08-01T04:51:55.992Z,1011.38
2022-08-01T04:52:55.953Z,1011.42
2022-08-01T04:53:55.917Z,1011.43
2022-08-01T04:54:55.880Z,1011.43
2022-08-01T04:55:55.855Z,1011.46
2022-08-01T04:56:55.806Z,1011.49
2022-08-01T04:57:55.771Z,1011.47
2022-08-01T04:58:55.734Z,1011.49
2022-08-01T04:59:55.698Z,1011.48
2022-08-01T05:00:55.686Z,1011.50
2022-08-01T05:01:55.637Z,1011.54
2022-08-01T05:02:55.611Z,1011.52
2022-08-01T05:03:55.553Z,1011.51
2022-08-01T05:04:55.516Z,1011.49
2022-08-01T05:05:55.484Z,1011.51
2022-08-01T05:06:55.444Z,1011.52
2022-08-01T05:07:55.418Z,1011.53
2022-08-01T05:08:55.371Z,1011.54
2022-08-01T05:09:55.332Z,1011.58
2022-08-01T05:10:55.296Z,1011.56
2022-08-01T05:11:55.271Z,1011.55
2022-08-01T05:12:55.222Z,1011.56
2022-08-01T05:13:55.209Z,1011.55
2022-08-01T05:14:55.151Z,1011.56
2022-08-01T05:15:55.119Z,1011.56
2022-08-01T05:16:55.077Z,1011.56
2022-08-01T05:17:55.043Z,1011.56
2022-08-01T05:18:55.005Z,1011.57
2022-08-01T05:19:54.977Z,1011.60
2022-08-01T05:20:54.932Z,1011.65
2022-08-01T05:21:54.894Z,1011.66
2022-08-01T05:22:54.861Z,1011.67
2022-08-01T05:23:54.823Z,1011.65
2022-08-01T05:24:54.796Z,1011.64
2022-08-01T05:25:57.350Z,1011.65
2022-08-01T05:26:54.714Z,1011.66
2022-08-01T05:27:54.675Z,1011.65
2022-08-01T05:28:55.388Z,1011.64
2022-08-01T05:29:54.602Z,1011.66
2022-08-01T05:30:54.564Z,1011.70
2022-08-01T05:31:54.538Z,1011.69
2022-08-01T05:32:54.504Z,1011.72
2022-08-01T05:33:54.466Z,1011.76
2022-08-01T05:34:54.422Z,1011.79
2022-08-01T05:35:54.390Z,1011.75
2022-08-01T05:36:57.701Z,1011.77
2022-08-01T05:37:54.339Z,1011.79
2022-08-01T05:38:54.273Z,1011.76
2022-08-01T05:39:54.238Z,1011.77
2022-08-01T05:40:54.202Z,1011.82
2022-08-01T05:41:54.170Z,1011.81
2022-08-01T05:42:54.137Z,1011.84
2022-08-01T05:43:54.103Z,1011.81
2022-08-01T05:44:54.056Z,1011.84
2022-08-01T05:45:54.020Z,1011.82
2022-08-01T05:46:53.982Z,1011.82
2022-08-01T05:47:53.950Z,1011.85
2022-08-01T05:48:53.961Z,1011.84
2022-08-01T05:49:53.902Z,1011.84
2022-08-01T05:50:58.069Z,1011.84
2022-08-01T05:51:53.807Z,1011.87
2022-08-01T05:52:53.773Z,1011.88
2022-08-01T05:53:53.742Z,1011.92
2022-08-01T05:54:53.707Z,1011.87
2022-08-01T05:55:53.657Z,1011.89
2022-08-01T05:56:53.628Z,1011.90
2022-08-01T05:57:53.602Z,1011.91
2022-08-01T05:58:53.548Z,1011.95
2022-08-01T05:59:53.512Z,1011.96
2022-08-01T06:00:53.477Z,1011.97
2022-08-01T06:01:53.519Z,1011.98
2022-08-01T06:02:53.405Z,1011.94
2022-08-01T06:03:53.387Z,1011.98
2022-08-01T06:04:53.333Z,1011.96
2022-08-01T06:05:53.302Z,1011.99
2022-08-01T06:06:53.260Z,1011.98
2022-08-01T06:07:53.248Z,1012.00
2022-08-01T06:08:53.187Z,1012.01
2022-08-01T06:09:53.152Z,1011.99
2022-08-01T06:10:53.116Z,1012.03
2022-08-01T06:11:53.077Z,1011.99
2022-08-01T06:12:53.045Z,1012.02
2022-08-01T06:13:53.025Z,1011.97
2022-08-01T06:14:52.977Z,1011.99
2022-08-01T06:15:52.955Z,1012.00
2022-08-01T06:16:52.908Z,1012.00
2022-08-01T06:17:52.888Z,1012.00
2022-08-01T06:18:56.526Z,1011.99
2022-08-01T06:19:52.796Z,1011.98
2022-08-01T06:20:52.755Z,1012.00
2022-08-01T06:21:52.731Z,1012.01
2022-08-01T06:22:52.808Z,1011.98
2022-08-01T06:23:52.674Z,1011.99
2022-08-01T06:24:52.630Z,1011.98
2022-08-01T06:25:52.578Z,1011.99
2022-08-01T06:26:52.548Z,1012.03
2022-08-01T06:27:52.511Z,1011.97
2022-08-01T06:28:52.494Z,1011.98
2022-08-01T06:29:54.101Z,1011.96
2022-08-01T06:33:19.581Z,1012.01
2022-08-01T06:34:19.539Z,1012.01
2022-08-01T06:35:19.539Z,1012.01
2022-08-01T06:36:19.466Z,1012.01
2022-08-01T06:37:19.432Z,1012.01
2022-08-01T06:38:19.413Z,1012.07
2022-08-01T06:39:19.358Z,1012.06
2022-08-01T06:40:19.329Z,1012.07
2022-08-01T06:41:19.301Z,1012.07
2022-08-01T06:42:19.255Z,1012.03
2022-08-01T06:43:19.219Z,1011.97
2022-08-01T06:44:19.181Z,1011.97
2022-08-01T06:45:19.166Z,1011.94
2022-08-01T06:46:19.150Z,1011.93
2022-08-01T06:47:19.080Z,1011.92
2022-08-01T06:48:19.041Z,1011.93
2022-08-01T06:49:19.056Z,1011.95
2022-08-01T06:50:18.970Z,1011.97
2022-08-01T06:51:18.935Z,1012.03
2022-08-01T06:52:18.911Z,1012.11
2022-08-01T06:53:18.866Z,1012.19
2022-08-01T06:54:18.829Z,1012.34
2022-08-01T06:55:18.794Z,1012.32
2022-08-01T06:56:18.763Z,1012.41
2022-08-01T06:57:18.726Z,1012.19
2022-08-01T06:58:18.710Z,1012.20
2022-08-01T06:59:18.671Z,1012.23
2022-08-01T07:00:18.619Z,1012.34
2022-08-01T07:01:18.694Z,1012.37
2022-08-01T07:02:18.553Z,1012.80
2022-08-01T07:03:18.513Z,1012.62
2022-08-01T07:04:18.485Z,1012.24
2022-08-01T07:05:18.461Z,1012.20
2022-08-01T07:06:18.441Z,1012.11
2022-08-01T07:07:18.422Z,1012.81
2022-08-01T07:08:18.345Z,1012.79
2022-08-01T07:09:18.310Z,1012.48
2022-08-01T07:10:18.277Z,1012.22
2022-08-01T07:11:18.258Z,1012.98
2022-08-01T07:12:18.220Z,1012.33
2022-08-01T07:13:18.176Z,1012.48
2022-08-01T07:14:18.139Z,1012.31
2022-08-01T07:15:18.108Z,1012.35
2022-08-01T07:16:18.073Z,1012.30
2022-08-01T07:17:18.059Z,1012.28
2022-08-01T07:18:18.005Z,1012.30
2022-08-01T07:19:17.985Z,1012.29
2022-08-01T07:20:17.941Z,1012.29
2022-08-01T07:21:40.666Z,1013.07
2022-08-01T07:22:23.617Z,1012.31
2022-08-01T07:23:17.843Z,1012.31
2022-08-01T07:24:19.496Z,1012.20
2022-08-01T07:25:18.042Z,1012.29
2022-08-01T07:26:17.741Z,1012.35
2022-08-01T07:27:25.608Z,1012.49
2022-08-01T07:28:17.675Z,1012.99
2022-08-01T07:29:17.643Z,1012.57
2022-08-01T07:30:17.609Z,1012.31
2022-08-01T07:31:17.590Z,1012.70
2022-08-01T07:32:17.544Z,1012.50
2022-08-01T07:33:17.510Z,1013.01
2022-08-01T07:34:17.476Z,1012.42
2022-08-01T07:35:17.448Z,1012.33
2022-08-01T07:36:17.419Z,1012.33
2022-08-01T07:37:17.389Z,1012.31
2022-08-01T07:38:17.345Z,1012.27
2022-08-01T07:39:17.327Z,1012.26
2022-08-01T07:40:17.281Z,1012.27
2022-08-01T07:41:17.252Z,1012.25
2022-08-01T07:42:17.232Z,1012.27
2022-08-01T07:43:17.186Z,1012.29
2022-08-01T07:44:17.162Z,1012.32
2022-08-01T07:45:17.120Z,1012.32
2022-08-01T07:46:17.098Z,1012.34
2022-08-01T07:47:17.051Z,1012.33
2022-08-01T07:48:17.018Z,1012.32
2022-08-01T07:49:17.038Z,1012.40
2022-08-01T07:50:16.951Z,1012.45
2022-08-01T07:51:16.929Z,1012.50
2022-08-01T07:52:17.038Z,1012.47
2022-08-01T07:53:16.856Z,1012.46
2022-08-01T07:54:16.823Z,1012.56
2022-08-01T07:55:16.942Z,1012.47
2022-08-01T07:56:16.757Z,1012.48
2022-08-01T07:57:16.736Z,1012.50
2022-08-01T07:58:16.689Z,1012.55
2022-08-01T07:59:17.489Z,1012.75
2022-08-01T08:00:16.622Z,1012.56
2022-08-01T08:01:16.591Z,1012.62
2022-08-01T08:02:16.611Z,1012.54
2022-08-01T08:03:16.532Z,1012.51
2022-08-01T08:04:16.491Z,1012.53
2022-08-01T08:05:16.456Z,1012.49
2022-08-01T08:06:16.422Z,1012.47
2022-08-01T08:07:16.396Z,1012.55
2022-08-01T08:08:16.358Z,1012.55
2022-08-01T08:09:16.333Z,1012.59
2022-08-01T08:10:16.290Z,1012.59
2022-08-01T08:11:16.474Z,1012.53
2022-08-01T08:12:16.226Z,1012.53
2022-08-01T08:13:16.200Z,1012.52
2022-08-01T08:14:16.172Z,1012.57
2022-08-01T08:15:16.160Z,1012.61
2022-08-01T08:16:16.093Z,1012.67
2022-08-01T08:17:16.062Z,1012.79
2022-08-01T08:18:16.062Z,1012.72
2022-08-01T08:19:16.004Z,1012.62
2022-08-01T08:20:15.965Z,1012.59
2022-08-01T08:21:15.957Z,1012.57
2022-08-01T08:22:15.901Z,1012.62
2022-08-01T08:23:15.866Z,1012.61
2022-08-01T08:24:15.834Z,1012.87
2022-08-01T08:25:15.802Z,1013.28
2022-08-01T08:26:15.778Z,1013.37
2022-08-01T08:27:15.742Z,1013.25
2022-08-01T08:28:15.706Z,1013.10
2022-08-01T08:29:15.673Z,1012.93
2022-08-01T08:30:15.883Z,1012.85
2022-08-01T08:31:25.242Z,1012.94
2022-08-01T08:32:15.586Z,1012.68
2022-08-01T08:33:15.542Z,1012.74
2022-08-01T08:34:15.510Z,1012.63
2022-08-01T08:35:22.947Z,1012.61
2022-08-01T08:36:15.445Z,1012.62
2022-08-01T08:37:15.483Z,1012.60
2022-08-01T08:38:15.401Z,1012.63
2022-08-01T08:39:15.353Z,1012.67
2022-08-01T08:40:15.319Z,1012.71
2022-08-01T08:41:20.666Z,1012.72
2022-08-01T08:42:15.257Z,1012.73
2022-08-01T08:43:15.227Z,1012.75
2022-08-01T08:44:15.200Z,1012.81
2022-08-01T08:45:15.171Z,1012.76
2022-08-01T08:46:15.126Z,1012.77
2022-08-01T08:47:19.750Z,1012.75
2022-08-01T08:48:15.427Z,1012.74
2022-08-01T08:49:15.204Z,1012.81
2022-08-01T08:50:15.038Z,1013.32
2022-08-01T08:51:14.972Z,1013.18
2022-08-01T08:52:14.933Z,1012.87
2022-08-01T08:53:18.592Z,1012.79
2022-08-01T08:54:15.071Z,1013.02
2022-08-01T08:55:15.031Z,1013.32
2022-08-01T08:56:14.804Z,1013.22
2022-08-01T08:57:14.777Z,1013.00
2022-08-01T08:58:14.741Z,1013.30
2022-08-01T08:59:14.718Z,1013.42
2022-08-01T09:00:14.677Z,1013.46
2022-08-01T09:01:14.673Z,1012.91
2022-08-01T09:02:14.909Z,1012.84
2022-08-01T09:03:14.650Z,1012.76
2022-08-01T09:04:14.550Z,1012.71
2022-08-01T09:05:19.245Z,1012.68
2022-08-01T09:06:14.500Z,1012.69
2022-08-01T09:07:14.462Z,1012.64
2022-08-01T09:08:14.423Z,1012.63
2022-08-01T09:09:14.393Z,1012.67
2022-08-01T09:10:14.363Z,1012.69
2022-08-01T09:11:22.602Z,1012.65
2022-08-01T09:12:14.321Z,1012.71
2022-08-01T09:13:14.268Z,1012.69
2022-08-01T09:14:14.698Z,1012.78
2022-08-01T09:15:23.588Z,1013.40
2022-08-01T09:16:14.175Z,1013.34
2022-08-01T09:17:14.145Z,1012.87
2022-08-01T09:18:14.107Z,1012.89
2022-08-01T09:19:15.992Z,1012.85
2022-08-01T09:20:14.057Z,1013.03
2022-08-01T09:21:14.010Z,1012.83
2022-08-01T09:22:13.982Z,1012.82
2022-08-01T09:23:13.948Z,1012.81
2022-08-01T09:24:13.914Z,1012.84
2022-08-01T09:25:13.885Z,1012.90
2022-08-01T09:26:13.857Z,1012.84
2022-08-01T09:27:13.819Z,1012.80
2022-08-01T09:28:13.794Z,1012.87
2022-08-01T09:29:13.753Z,1012.79
2022-08-01T09:30:13.978Z,1012.80
2022-08-01T09:31:13.689Z,1012.82
2022-08-01T09:32:16.412Z,1012.85
2022-08-01T09:33:21.503Z,1012.84
2022-08-01T09:34:13.587Z,1012.91
2022-08-01T09:35:13.556Z,1013.05
2022-08-01T09:36:13.523Z,1013.49
2022-08-01T09:37:13.500Z,1013.60
2022-08-01T09:38:13.461Z,1013.16
2022-08-01T09:39:13.425Z,1013.07
2022-08-01T09:40:13.393Z,1013.40
2022-08-01T09:41:14.267Z,1013.27
2022-08-01T09:42:13.343Z,1013.14
2022-08-01T09:43:14.863Z,1013.02
2022-08-01T09:44:13.263Z,1013.05
2022-08-01T09:45:23.330Z,1013.17
2022-08-01T09:46:13.201Z,1013.15
2022-08-01T09:47:15.366Z,1013.38
2022-08-01T09:48:13.145Z,1013.53
2022-08-01T09:49:13.204Z,1013.25
2022-08-01T09:50:13.073Z,1013.32
2022-08-01T09:51:13.059Z,1013.37
2022-08-01T09:52:13.012Z,1013.23
2022-08-01T09:53:30.238Z,1013.19
2022-08-01T09:54:12.946Z,1013.13
2022-08-01T09:55:12.915Z,1013.14
2022-08-01T09:56:12.887Z,1013.13
2022-08-01T09:57:12.858Z,1013.12
2022-08-01T09:58:12.829Z,1013.33
2022-08-01T09:59:12.793Z,1013.55
2022-08-01T10:00:24.243Z,1013.64
2022-08-01T10:01:12.728Z,1013.49
2022-08-01T10:02:12.701Z,1013.45
2022-08-01T10:03:12.751Z,1013.42
2022-08-01T10:04:12.664Z,1013.26
2022-08-01T10:05:20.921Z,1013.10
2022-08-01T10:06:12.574Z,1013.02
2022-08-01T10:07:12.542Z,1013.36
2022-08-01T10:08:12.512Z,1013.67
2022-08-01T10:09:12.492Z,1013.67
2022-08-01T10:10:12.453Z,1013.14
2022-08-01T10:11:12.545Z,1012.89
2022-08-01T10:12:15.985Z,1012.94
2022-08-01T10:13:12.361Z,1013.43
2022-08-01T10:14:12.343Z,1013.27
2022-08-01T10:15:12.316Z,1013.48
2022-08-01T10:16:12.355Z,1013.50
2022-08-01T10:17:12.238Z,1013.48
2022-08-01T10:18:16.584Z,1013.50
2022-08-01T10:19:15.509Z,1013.08
2022-08-01T10:20:28.838Z,1012.97
2022-08-01T10:21:12.130Z,1013.03
2022-08-01T10:22:12.089Z,1012.99
2022-08-01T10:23:12.060Z,1013.40
2022-08-01T10:24:12.031Z,1013.50
2022-08-01T10:25:12.014Z,1013.53
2022-08-01T10:26:11.971Z,1013.41
2022-08-01T10:27:12.711Z,1013.01
2022-08-01T10:28:11.913Z,1013.50
2022-08-01T10:29:24.353Z,1013.53
2022-08-01T10:30:19.447Z,1013.53
2022-08-01T10:31:12.534Z,1013.52
2022-08-01T10:32:11.796Z,1013.54
2022-08-01T10:33:11.781Z,1013.53
2022-08-01T10:34:11.737Z,1012.95
2022-08-01T10:35:15.073Z,1012.86
2022-08-01T10:36:11.682Z,1012.87
2022-08-01T10:37:11.657Z,1012.83
2022-08-01T10:38:13.741Z,1012.95
2022-08-01T10:39:11.607Z,1013.06
2022-08-01T10:40:29.215Z,1013.48
2022-08-01T10:41:11.539Z,1013.32
2022-08-01T10:42:15.658Z,1013.34
2022-08-01T10:43:11.481Z,1013.61
2022-08-01T10:44:11.453Z,1013.53
2022-08-01T10:45:11.439Z,1013.63
2022-08-01T10:46:11.394Z,1013.50
2022-08-01T10:47:11.371Z,1013.26
2022-08-01T10:48:11.339Z,1012.82
2022-08-01T10:49:11.326Z,1012.80
2022-08-01T10:50:11.280Z,1012.76
2022-08-01T10:51:17.861Z,1012.76
2022-08-01T10:52:11.234Z,1012.72
2022-08-01T10:53:16.011Z,1012.73
2022-08-01T10:54:11.168Z,1012.77
2022-08-01T10:55:11.140Z,1012.87
2022-08-01T10:56:13.181Z,1012.85
2022-08-01T10:57:11.080Z,1012.85
2022-08-01T10:58:11.052Z,1012.78
2022-08-01T10:59:11.817Z,1012.79
2022-08-01T11:00:10.988Z,1012.75
2022-08-01T11:01:11.021Z,1012.84
2022-08-01T11:02:10.954Z,1012.84
2022-08-01T11:03:10.901Z,1012.90
2022-08-01T11:04:16.014Z,1012.88
2022-08-01T11:05:10.839Z,1013.13
2022-08-01T11:06:10.821Z,1012.88
2022-08-01T11:07:11.128Z,1012.88
2022-08-01T11:08:10.778Z,1012.99
2022-08-01T11:09:10.715Z,1013.23
2022-08-01T11:10:14.878Z,1013.39
2022-08-01T11:11:10.652Z,1012.89
2022-08-01T11:12:13.641Z,1012.80
2022-08-01T11:13:10.590Z,1012.83
2022-08-01T11:14:10.686Z,1012.84
2022-08-01T11:15:10.537Z,1012.83
2022-08-01T11:16:16.410Z,1012.78
2022-08-01T11:17:10.465Z,1013.26
2022-08-01T11:18:10.434Z,1012.83
2022-08-01T11:19:10.405Z,1012.86
2022-08-01T11:20:10.383Z,1012.97
2022-08-01T11:21:58.606Z,1012.81
2022-08-01T11:22:10.310Z,1012.87
2022-08-01T11:23:10.280Z,1012.83
2022-08-01T11:24:10.247Z,1012.84
2022-08-01T11:25:10.217Z,1012.81
2022-08-01T11:26:10.696Z,1012.78
2022-08-01T11:27:10.156Z,1012.95
2022-08-01T11:28:14.824Z,1012.84
2022-08-01T11:29:19.897Z,1013.08
2022-08-01T11:30:12.894Z,1013.11
2022-08-01T11:31:11.300Z,1013.06
2022-08-01T11:32:09.999Z,1013.10
2022-08-01T11:33:10.399Z,1012.94
2022-08-01T11:34:09.935Z,1012.86
2022-08-01T11:35:09.904Z,1013.02
2022-08-01T11:36:09.876Z,1013.07
2022-08-01T11:37:10.215Z,1013.09
2022-08-01T11:38:09.811Z,1013.17
2022-08-01T11:39:13.546Z,1013.09
2022-08-01T11:40:09.754Z,1013.07
2022-08-01T11:41:09.723Z,1013.08
2022-08-01T11:42:09.692Z,1013.09
2022-08-01T11:43:09.672Z,1013.05
2022-08-01T11:44:09.636Z,1012.99
2022-08-01T11:45:09.604Z,1012.91
2022-08-01T11:46:09.605Z,1012.97
2022-08-01T11:47:10.607Z,1013.07
2022-08-01T11:48:10.168Z,1013.06
2022-08-01T11:49:09.540Z,1013.04
2022-08-01T11:50:09.456Z,1013.06
2022-08-01T11:51:09.428Z,1013.03
2022-08-01T11:52:09.401Z,1013.05
2022-08-01T11:53:09.370Z,1013.05
2022-08-01T11:54:09.344Z,1012.96
2022-08-01T11:55:10.369Z,1013.01
2022-08-01T11:56:09.286Z,1012.99
2022-08-01T11:57:10.220Z,1012.95
2022-08-01T11:58:22.250Z,1012.97
2022-08-01T11:59:15.079Z,1012.99
2022-08-01T12:00:09.256Z,1012.88
2022-08-01T12:01:09.218Z,1013.12
2022-08-01T12:02:09.164Z,1012.57
2022-08-01T12:03:09.092Z,1012.55
2022-08-01T12:04:09.062Z,1012.55
2022-08-01T12:05:11.640Z,1012.57
2022-08-01T12:06:09.008Z,1012.55
2022-08-01T12:07:09.203Z,1012.58